createdAt,value
2018-07-21T00:01:37.606Z,5.80
2018-07-21T00:04:08.035Z,5.93
2018-07-21T00:06:37.739Z,5.70
2018-07-21T00:09:10.531Z,6.07
2018-07-21T00:11:41.003Z,6.00
2018-07-21T00:14:10.798Z,6.07
2018-07-21T00:16:40.489Z,5.70
2018-07-21T00:19:10.320Z,6.50
2018-07-21T00:21:40.023Z,5.93
2018-07-21T00:24:09.779Z,5.23
2018-07-21T00:26:44.494Z,5.40
2018-07-21T00:29:14.256Z,5.53
2018-07-21T00:31:44.220Z,5.40
2018-07-21T00:34:14.099Z,5.87
2018-07-21T00:36:43.912Z,5.93
2018-07-21T00:39:14.958Z,5.67
2018-07-21T00:41:44.798Z,5.87
2018-07-21T00:44:14.535Z,5.87
2018-07-21T00:46:44.332Z,5.27
2018-07-21T00:49:14.115Z,5.40
2018-07-21T00:51:43.871Z,5.80
2018-07-21T00:54:13.664Z,5.23
2018-07-21T00:56:43.441Z,5.70
2018-07-21T00:59:13.168Z,5.10
2018-07-21T01:01:42.937Z,5.57
2018-07-21T01:04:12.736Z,5.70
2018-07-21T01:06:42.543Z,5.47
2018-07-21T01:09:12.295Z,5.20
2018-07-21T01:11:42.075Z,5.27
2018-07-21T01:14:11.787Z,5.40
2018-07-21T01:16:41.551Z,5.20
2018-07-21T01:19:11.293Z,5.27
2018-07-21T01:21:41.050Z,5.13
2018-07-21T01:24:10.859Z,5.10
2018-07-21T01:26:40.591Z,5.13
2018-07-21T01:29:10.272Z,5.33
2018-07-21T01:31:40.083Z,5.60
2018-07-21T01:34:09.807Z,5.60
2018-07-21T01:36:39.560Z,5.70
2018-07-21T01:39:10.883Z,6.07
2018-07-21T01:41:40.935Z,5.67
2018-07-21T01:44:10.662Z,5.60
2018-07-21T01:46:40.451Z,5.40
2018-07-21T01:49:10.316Z,5.47
2018-07-21T01:51:40.111Z,5.40
2018-07-21T01:54:10.011Z,6.00
2018-07-21T01:56:39.739Z,5.77
2018-07-21T01:59:09.492Z,5.77
2018-07-21T02:01:39.223Z,5.47
2018-07-21T02:04:08.991Z,5.43
2018-07-21T02:06:38.767Z,5.93
2018-07-21T02:09:09.783Z,5.53
2018-07-21T02:11:39.667Z,5.70
2018-07-21T02:14:09.748Z,6.13
2018-07-21T02:16:39.555Z,5.80
2018-07-21T02:19:09.387Z,5.70
2018-07-21T02:21:39.082Z,5.53
2018-07-21T02:24:08.828Z,6.20
2018-07-21T02:26:38.647Z,5.70
2018-07-21T02:29:08.399Z,5.77
2018-07-21T02:31:38.110Z,5.60
2018-07-21T02:34:07.890Z,5.40
2018-07-21T02:36:37.628Z,5.43
2018-07-21T02:39:10.317Z,5.70
2018-07-21T02:41:40.069Z,5.87
2018-07-21T02:44:09.814Z,5.83
2018-07-21T02:46:39.579Z,6.17
2018-07-21T02:49:09.408Z,5.63
2018-07-21T02:51:39.104Z,5.80
2018-07-21T02:54:08.863Z,5.70
2018-07-21T02:56:38.567Z,6.17
2018-07-21T02:59:08.327Z,6.00
2018-07-21T03:01:38.173Z,5.60
2018-07-21T03:04:08.020Z,5.63
2018-07-21T03:06:37.763Z,5.80
2018-07-21T03:09:10.324Z,5.80
2018-07-21T03:11:40.091Z,5.90
2018-07-21T03:14:10.013Z,5.40
2018-07-21T03:16:39.836Z,6.10
2018-07-21T03:19:09.597Z,6.70
2018-07-21T03:21:39.379Z,5.90
2018-07-21T03:24:09.143Z,5.83
2018-07-21T03:26:38.855Z,5.60
2018-07-21T03:29:08.655Z,5.67
2018-07-21T03:31:38.371Z,5.83
2018-07-21T03:34:08.142Z,5.53
2018-07-21T03:36:37.858Z,5.43
2018-07-21T03:39:10.388Z,5.93
2018-07-21T03:41:40.236Z,5.70
2018-07-21T03:44:10.071Z,5.63
2018-07-21T03:46:39.887Z,5.20
2018-07-21T03:49:09.713Z,5.67
2018-07-21T03:51:39.411Z,5.20
2018-07-21T03:54:09.183Z,5.90
2018-07-21T03:56:38.923Z,5.50
2018-07-21T03:59:08.683Z,5.97
2018-07-21T04:01:38.617Z,5.77
2018-07-21T04:04:08.691Z,5.50
2018-07-21T04:06:38.430Z,5.80
2018-07-21T04:09:10.134Z,5.57
2018-07-21T04:11:39.973Z,5.90
2018-07-21T04:14:10.119Z,5.70
2018-07-21T04:16:39.949Z,5.67
2018-07-21T04:19:09.782Z,6.00
2018-07-21T04:21:39.603Z,5.70
2018-07-21T04:24:09.368Z,5.37
2018-07-21T04:26:39.132Z,5.50
2018-07-21T04:29:08.870Z,5.83
2018-07-21T04:31:38.574Z,5.83
2018-07-21T04:34:08.270Z,5.27
2018-07-21T04:36:38.152Z,6.30
2018-07-21T04:39:10.637Z,5.30
2018-07-21T04:41:41.043Z,5.13
2018-07-21T04:44:10.743Z,5.50
2018-07-21T04:46:40.511Z,5.10
2018-07-21T04:49:10.202Z,5.67
2018-07-21T04:51:39.951Z,5.70
2018-07-21T04:54:09.667Z,5.23
2018-07-21T04:56:39.442Z,5.50
2018-07-21T04:59:09.203Z,5.40
2018-07-21T05:01:38.982Z,5.30
2018-07-21T05:04:08.752Z,5.50
2018-07-21T05:06:38.512Z,5.13
2018-07-21T05:09:10.356Z,5.30
2018-07-21T05:11:40.115Z,4.80
2018-07-21T05:14:10.035Z,4.70
2018-07-21T05:16:40.287Z,5.70
2018-07-21T05:19:10.042Z,5.83
2018-07-21T05:21:39.763Z,5.40
2018-07-21T05:24:09.602Z,4.90
2018-07-21T05:26:39.392Z,5.27
2018-07-21T05:29:09.194Z,5.30
2018-07-21T05:31:38.923Z,5.20
2018-07-21T05:34:08.674Z,5.50
2018-07-21T05:36:38.422Z,5.83
2018-07-21T05:39:09.363Z,5.37
2018-07-21T05:41:39.272Z,6.03
2018-07-21T05:44:09.092Z,6.40
2018-07-21T05:46:38.811Z,5.27
2018-07-21T05:49:09.042Z,5.93
2018-07-21T05:51:38.827Z,5.50
2018-07-21T05:54:08.767Z,5.17
2018-07-21T05:56:38.551Z,5.50
2018-07-21T05:59:08.367Z,5.47
2018-07-21T06:01:38.143Z,5.90
2018-07-21T06:04:07.865Z,5.20
2018-07-21T06:06:37.626Z,6.07
2018-07-21T06:09:09.103Z,5.07
2018-07-21T06:11:39.114Z,5.53
2018-07-21T06:14:08.863Z,5.20
2018-07-21T06:16:38.638Z,5.37
2018-07-21T06:19:08.399Z,5.23
2018-07-21T06:21:38.232Z,5.37
2018-07-21T06:24:08.075Z,5.40
2018-07-21T06:26:37.903Z,5.20
2018-07-21T06:29:07.714Z,5.33
2018-07-21T06:31:37.458Z,5.40
2018-07-21T06:34:07.387Z,4.87
2018-07-21T06:36:37.122Z,5.20
2018-07-21T06:39:09.275Z,5.43
2018-07-21T06:41:39.076Z,5.00
2018-07-21T06:44:09.023Z,5.07
2018-07-21T06:46:38.796Z,4.87
2018-07-21T06:49:08.547Z,4.67
2018-07-21T06:51:38.367Z,4.63
2018-07-21T06:54:08.139Z,5.13
2018-07-21T06:56:37.918Z,5.00
2018-07-21T06:59:07.746Z,5.10
2018-07-21T07:01:37.595Z,5.10
2018-07-21T07:04:07.444Z,4.80
2018-07-21T07:06:37.150Z,5.37
2018-07-21T07:09:09.392Z,4.67
2018-07-21T07:11:40.195Z,4.80
2018-07-21T07:14:10.029Z,5.30
2018-07-21T07:16:39.813Z,5.00
2018-07-21T07:19:09.571Z,4.53
2018-07-21T07:21:39.311Z,4.80
2018-07-21T07:24:09.123Z,4.60
2018-07-21T07:26:38.913Z,5.03
2018-07-21T07:29:08.666Z,5.10
2018-07-21T07:31:38.498Z,4.90
2018-07-21T07:34:08.337Z,4.73
2018-07-21T07:36:38.116Z,4.80
2018-07-21T07:39:09.147Z,4.67
2018-07-21T07:41:39.261Z,5.00
2018-07-21T07:44:09.220Z,5.00
2018-07-21T07:46:38.959Z,5.30
2018-07-21T07:49:08.782Z,4.70
2018-07-21T07:51:38.556Z,4.33
2018-07-21T07:54:08.303Z,4.70
2018-07-21T07:56:38.140Z,4.60
2018-07-21T07:59:07.907Z,4.27
2018-07-21T08:01:37.699Z,4.77
2018-07-21T08:04:07.554Z,4.47
2018-07-21T08:06:37.293Z,4.60
2018-07-21T08:09:10.019Z,4.63
2018-07-21T08:11:39.872Z,4.40
2018-07-21T08:14:09.718Z,4.50
2018-07-21T08:16:39.466Z,4.70
2018-07-21T08:19:09.920Z,4.43
2018-07-21T08:21:39.679Z,4.40
2018-07-21T08:24:10.035Z,4.77
2018-07-21T08:26:39.778Z,4.10
2018-07-21T08:29:09.560Z,4.30
2018-07-21T08:31:39.359Z,3.67
2018-07-21T08:34:09.091Z,3.80
2018-07-21T08:36:38.859Z,4.27
2018-07-21T08:39:10.417Z,4.40
2018-07-21T08:41:40.260Z,4.20
2018-07-21T08:44:10.067Z,4.17
2018-07-21T08:46:39.799Z,3.97
2018-07-21T08:49:09.598Z,4.10
2018-07-21T08:51:39.299Z,4.00
2018-07-21T08:54:09.123Z,3.90
2018-07-21T08:56:38.903Z,3.87
2018-07-21T08:59:08.656Z,3.60
2018-07-21T09:01:38.430Z,4.00
2018-07-21T09:04:08.288Z,3.63
2018-07-21T09:06:38.003Z,3.93
2018-07-21T09:09:10.236Z,3.87
2018-07-21T09:11:40.500Z,4.20
2018-07-21T09:14:10.255Z,4.40
2018-07-21T09:16:40.072Z,3.80
2018-07-21T09:19:09.788Z,4.10
2018-07-21T09:21:39.536Z,4.30
2018-07-21T09:24:09.322Z,6.10
2018-07-21T09:26:39.053Z,3.80
2018-07-21T09:29:08.779Z,4.20
2018-07-21T09:31:38.691Z,4.00
2018-07-21T09:34:08.504Z,4.00
2018-07-21T09:36:38.298Z,4.10
2018-07-21T09:39:09.839Z,4.50
2018-07-21T09:41:39.691Z,4.03
2018-07-21T09:44:09.560Z,4.43
2018-07-21T09:46:39.292Z,4.50
2018-07-21T09:49:09.116Z,4.30
2018-07-21T09:51:38.911Z,4.00
2018-07-21T09:54:08.670Z,4.70
2018-07-21T09:56:38.438Z,4.40
2018-07-21T09:59:08.216Z,3.90
2018-07-21T10:01:38.041Z,4.23
2018-07-21T10:04:07.823Z,4.73
2018-07-21T10:06:37.583Z,4.37
2018-07-21T10:09:09.727Z,4.30
2018-07-21T10:11:39.592Z,4.40
2018-07-21T10:14:09.487Z,4.50
2018-07-21T10:16:39.271Z,4.17
2018-07-21T10:19:09.127Z,4.33
2018-07-21T10:21:38.969Z,4.17
2018-07-21T10:24:13.947Z,4.10
2018-07-21T10:26:48.617Z,3.90
2018-07-21T10:29:18.365Z,4.00
2018-07-21T10:31:48.139Z,3.90
2018-07-21T10:34:17.935Z,4.10
2018-07-21T10:36:47.680Z,3.47
2018-07-21T10:39:17.473Z,3.40
2018-07-21T10:41:47.252Z,3.57
2018-07-21T10:44:17.115Z,3.07
2018-07-21T10:46:46.900Z,3.63
2018-07-21T10:49:16.738Z,3.47
2018-07-21T10:51:46.507Z,3.50
2018-07-21T10:54:16.298Z,3.50
2018-07-21T10:56:46.131Z,3.40
2018-07-21T10:59:15.928Z,3.00
2018-07-21T11:01:45.714Z,3.20
2018-07-21T11:04:15.503Z,3.23
2018-07-21T11:06:45.294Z,3.20
2018-07-21T11:09:15.079Z,3.00
2018-07-21T11:11:44.844Z,3.00
2018-07-21T11:14:14.575Z,3.47
2018-07-21T11:16:44.314Z,3.50
2018-07-21T11:19:14.146Z,2.90
2018-07-21T11:21:43.928Z,3.30
2018-07-21T11:24:13.642Z,3.10
2018-07-21T11:26:43.472Z,2.90
2018-07-21T11:29:13.369Z,2.83
2018-07-21T11:31:43.095Z,3.40
2018-07-21T11:34:12.911Z,3.70
2018-07-21T11:36:42.640Z,3.67
2018-07-21T11:39:12.388Z,3.30
2018-07-21T11:41:42.200Z,3.40
2018-07-21T11:44:12.062Z,3.40
2018-07-21T11:46:41.846Z,3.20
2018-07-21T11:49:11.607Z,2.97
2018-07-21T11:51:41.387Z,3.20
2018-07-21T11:54:11.162Z,3.00
2018-07-21T11:56:40.936Z,3.43
2018-07-21T11:59:10.744Z,3.13
2018-07-21T12:01:40.550Z,3.00
2018-07-21T12:04:10.369Z,3.13
2018-07-21T12:06:40.148Z,3.17
2018-07-21T12:09:10.188Z,3.10
2018-07-21T12:11:39.957Z,3.40
2018-07-21T12:14:09.741Z,3.40
2018-07-21T12:16:39.549Z,3.20
2018-07-21T12:19:09.333Z,3.40
2018-07-21T12:21:39.164Z,3.20
2018-07-21T12:24:08.972Z,2.87
2018-07-21T12:26:38.871Z,3.20
2018-07-21T12:29:08.748Z,3.37
2018-07-21T12:31:38.618Z,3.10
2018-07-21T12:34:08.386Z,3.23
2018-07-21T12:36:38.197Z,3.00
2018-07-21T12:39:09.551Z,3.40
2018-07-21T12:41:39.927Z,3.90
2018-07-21T12:44:09.779Z,3.73
2018-07-21T12:46:39.579Z,3.10
2018-07-21T12:49:09.383Z,3.30
2018-07-21T12:51:39.076Z,3.53
2018-07-21T12:54:08.845Z,3.63
2018-07-21T12:56:38.657Z,3.93
2018-07-21T12:59:08.365Z,3.30
2018-07-21T13:01:38.162Z,3.60
2018-07-21T13:04:07.953Z,3.47
2018-07-21T13:06:37.805Z,3.80
2018-07-21T13:09:09.664Z,3.50
2018-07-21T13:11:39.695Z,3.70
2018-07-21T13:14:09.769Z,3.63
2018-07-21T13:16:39.710Z,3.60
2018-07-21T13:19:09.501Z,3.90
2018-07-21T13:21:39.223Z,3.20
2018-07-21T13:24:08.988Z,3.30
2018-07-21T13:26:38.767Z,3.70
2018-07-21T13:29:08.507Z,3.90
2018-07-21T13:31:38.321Z,3.70
2018-07-21T13:34:08.104Z,3.73
2018-07-21T13:36:37.910Z,4.73
2018-07-21T13:39:09.995Z,4.00
2018-07-21T13:41:39.826Z,3.77
2018-07-21T13:44:09.730Z,3.70
2018-07-21T13:46:39.515Z,4.30
2018-07-21T13:49:09.356Z,3.80
2018-07-21T13:51:39.174Z,4.20
2018-07-21T13:54:08.889Z,4.17
2018-07-21T13:56:38.710Z,4.23
2018-07-21T13:59:08.483Z,5.20
2018-07-21T14:01:38.307Z,4.57
2018-07-21T14:04:08.067Z,4.30
2018-07-21T14:06:37.817Z,4.50
2018-07-21T14:09:08.679Z,4.83
2018-07-21T14:11:38.710Z,4.10
2018-07-21T14:14:08.687Z,4.50
2018-07-21T14:16:38.443Z,4.60
2018-07-21T14:19:08.191Z,4.10
2018-07-21T14:21:37.903Z,4.23
2018-07-21T14:24:07.744Z,4.20
2018-07-21T14:26:37.448Z,4.13
2018-07-21T14:29:07.209Z,3.93
2018-07-21T14:31:36.963Z,3.73
2018-07-21T14:34:06.750Z,3.67
2018-07-21T14:36:36.551Z,3.30
2018-07-21T14:39:08.783Z,3.63
2018-07-21T14:41:39.073Z,3.70
2018-07-21T14:44:09.184Z,3.70
2018-07-21T14:46:39.016Z,3.70
2018-07-21T14:49:08.811Z,3.20
2018-07-21T14:51:38.575Z,3.57
2018-07-21T14:54:08.357Z,3.40
2018-07-21T14:56:38.129Z,3.63
2018-07-21T14:59:07.912Z,3.50
2018-07-21T15:01:37.642Z,3.47
2018-07-21T15:04:07.422Z,3.10
2018-07-21T15:06:37.263Z,3.60
2018-07-21T15:09:09.603Z,3.23
2018-07-21T15:11:39.560Z,3.13
2018-07-21T15:14:09.400Z,3.57
2018-07-21T15:16:39.166Z,3.50
2018-07-21T15:19:08.936Z,3.63
2018-07-21T15:21:38.715Z,3.50
2018-07-21T15:24:08.511Z,3.70
2018-07-21T15:26:38.291Z,2.90
2018-07-21T15:29:08.035Z,3.43
2018-07-21T15:31:37.845Z,3.47
2018-07-21T15:34:07.623Z,3.63
2018-07-21T15:36:37.376Z,3.50
2018-07-21T15:39:08.480Z,3.60
2018-07-21T15:41:38.381Z,3.63
2018-07-21T15:44:08.219Z,3.23
2018-07-21T15:46:38.031Z,3.70
2018-07-21T15:49:07.790Z,3.40
2018-07-21T15:51:37.550Z,3.40
2018-07-21T15:54:07.446Z,3.20
2018-07-21T15:56:37.342Z,3.27
2018-07-21T15:59:07.284Z,3.57
2018-07-21T16:01:37.117Z,3.57
2018-07-21T16:04:06.911Z,3.87
2018-07-21T16:06:36.614Z,3.60
2018-07-21T16:09:08.858Z,3.80
2018-07-21T16:11:39.120Z,3.60
2018-07-21T16:14:08.897Z,3.70
2018-07-21T16:16:38.620Z,3.80
2018-07-21T16:19:08.378Z,3.50
2018-07-21T16:21:38.100Z,3.50
2018-07-21T16:24:07.983Z,3.70
2018-07-21T16:26:37.735Z,3.73
2018-07-21T16:29:07.677Z,3.60
2018-07-21T16:31:37.438Z,4.10
2018-07-21T16:34:07.279Z,3.47
2018-07-21T16:36:37.042Z,3.50
2018-07-21T16:39:09.531Z,3.83
2018-07-21T16:41:39.439Z,3.50
2018-07-21T16:44:09.169Z,3.77
2018-07-21T16:46:38.919Z,3.53
2018-07-21T16:49:08.643Z,3.60
2018-07-21T16:51:38.400Z,3.40
2018-07-21T16:54:08.144Z,3.60
2018-07-21T16:56:37.916Z,4.23
2018-07-21T16:59:07.662Z,4.03
2018-07-21T17:01:37.390Z,3.90
2018-07-21T17:04:07.203Z,4.27
2018-07-21T17:06:36.930Z,4.03
2018-07-21T17:09:08.873Z,4.10
2018-07-21T17:11:38.679Z,3.93
2018-07-21T17:14:09.156Z,4.00
2018-07-21T17:16:38.955Z,3.90
2018-07-21T17:19:08.800Z,3.97
2018-07-21T17:21:38.515Z,3.70
2018-07-21T17:24:08.807Z,4.07
2018-07-21T17:26:38.510Z,4.23
2018-07-21T17:29:08.279Z,4.70
2018-07-21T17:31:38.182Z,4.20
2018-07-21T17:34:07.931Z,4.60
2018-07-21T17:36:37.675Z,4.50
2018-07-21T17:39:09.281Z,4.10
2018-07-21T17:41:39.027Z,3.90
2018-07-21T17:44:09.042Z,4.37
2018-07-21T17:46:38.857Z,4.27
2018-07-21T17:49:08.586Z,3.90
2018-07-21T17:51:38.449Z,4.10
2018-07-21T17:54:08.257Z,4.10
2018-07-21T17:56:38.086Z,4.43
2018-07-21T17:59:07.871Z,5.20
2018-07-21T18:01:37.659Z,5.03
2018-07-21T18:04:07.396Z,5.10
2018-07-21T18:06:37.216Z,4.60
2018-07-21T18:09:08.188Z,4.97
2018-07-21T18:11:37.962Z,5.00
2018-07-21T18:14:07.799Z,4.53
2018-07-21T18:16:37.601Z,5.03
2018-07-21T18:19:07.338Z,4.43
2018-07-21T18:21:37.038Z,4.07
2018-07-21T18:24:06.809Z,4.83
2018-07-21T18:26:36.588Z,4.50
2018-07-21T18:29:06.448Z,4.80
2018-07-21T18:31:36.241Z,4.80
2018-07-21T18:34:06.168Z,4.20
2018-07-21T18:36:35.890Z,4.80
2018-07-21T18:39:08.311Z,4.33
2018-07-21T18:41:38.143Z,4.37
2018-07-21T18:44:08.218Z,5.30
2018-07-21T18:46:38.055Z,4.87
2018-07-21T18:49:07.811Z,4.93
2018-07-21T18:51:37.550Z,5.10
2018-07-21T18:54:07.446Z,4.70
2018-07-21T18:56:37.206Z,5.47
2018-07-21T18:59:07.028Z,7.17
2018-07-21T19:01:36.838Z,5.93
2018-07-21T19:04:06.668Z,6.90
2018-07-21T19:06:36.415Z,7.80
2018-07-21T19:09:08.560Z,6.50
2018-07-21T19:11:38.573Z,6.90
2018-07-21T19:14:08.387Z,6.30
2018-07-21T19:16:41.223Z,5.93
2018-07-21T19:19:10.973Z,5.83
2018-07-21T19:21:40.747Z,6.07
2018-07-21T19:24:10.514Z,5.50
2018-07-21T19:26:45.274Z,5.30
2018-07-21T19:29:15.041Z,5.70
2018-07-21T19:31:50.025Z,5.53
2018-07-21T19:34:19.690Z,6.30
2018-07-21T19:36:49.424Z,5.77
2018-07-21T19:39:19.182Z,5.63
2018-07-21T19:41:53.883Z,5.67
2018-07-21T19:44:23.622Z,5.03
2018-07-21T19:46:53.355Z,5.00
2018-07-21T19:49:23.139Z,4.90
2018-07-21T19:51:52.853Z,5.27
2018-07-21T19:54:22.680Z,5.57
2018-07-21T19:56:52.504Z,5.13
2018-07-21T19:59:22.322Z,5.00
2018-07-21T20:01:52.063Z,4.93
2018-07-21T20:04:21.914Z,5.10
2018-07-21T20:06:51.710Z,5.17
2018-07-21T20:09:21.512Z,5.50
2018-07-21T20:11:51.272Z,4.80
2018-07-21T20:14:21.111Z,5.27
2018-07-21T20:16:50.960Z,5.20
2018-07-21T20:19:20.771Z,5.07
2018-07-21T20:21:50.540Z,5.17
2018-07-21T20:24:20.275Z,5.17
2018-07-21T20:26:50.072Z,5.63
2018-07-21T20:29:19.776Z,5.77
2018-07-21T20:31:49.519Z,5.63
2018-07-21T20:34:19.256Z,5.40
2018-07-21T20:36:49.098Z,5.53
2018-07-21T20:39:18.862Z,5.70
2018-07-21T20:41:48.564Z,6.00
2018-07-21T20:44:18.303Z,5.37
2018-07-21T20:46:48.091Z,5.30
2018-07-21T20:49:17.834Z,5.10
2018-07-21T20:51:47.875Z,5.60
2018-07-21T20:54:17.681Z,4.80
2018-07-21T20:56:47.473Z,5.40
2018-07-21T20:59:17.303Z,5.17
2018-07-21T21:01:47.087Z,5.70
2018-07-21T21:04:16.855Z,5.70
2018-07-21T21:06:46.636Z,4.93
2018-07-21T21:09:16.353Z,5.10
2018-07-21T21:11:46.051Z,5.00
2018-07-21T21:14:15.788Z,5.27
2018-07-21T21:16:45.535Z,5.87
2018-07-21T21:19:15.243Z,5.30
2018-07-21T21:21:45.053Z,5.07
2018-07-21T21:24:14.761Z,5.13
2018-07-21T21:26:44.503Z,5.40
2018-07-21T21:29:14.215Z,5.23
2018-07-21T21:31:44.054Z,5.83
2018-07-21T21:34:13.774Z,5.23
2018-07-21T21:36:43.620Z,5.17
2018-07-21T21:39:14.059Z,5.83
2018-07-21T21:41:43.890Z,5.67
2018-07-21T21:44:13.576Z,5.80
2018-07-21T21:46:43.493Z,6.20
2018-07-21T21:49:13.251Z,6.27
2018-07-21T21:51:43.071Z,5.90
2018-07-21T21:54:12.816Z,7.00
2018-07-21T21:56:42.618Z,5.80
2018-07-21T21:59:12.391Z,6.23
2018-07-21T22:01:42.144Z,6.80
2018-07-21T22:04:11.884Z,6.80
2018-07-21T22:06:41.683Z,5.93
2018-07-21T22:09:11.928Z,6.50
2018-07-21T22:11:41.770Z,6.07
2018-07-21T22:14:11.545Z,6.43
2018-07-21T22:16:41.436Z,6.23
2018-07-21T22:19:11.219Z,6.73
2018-07-21T22:21:40.969Z,6.53
2018-07-21T22:24:10.724Z,6.27
2018-07-21T22:26:40.484Z,6.80
2018-07-21T22:29:10.231Z,7.30
2018-07-21T22:31:40.051Z,6.30
2018-07-21T22:34:09.850Z,6.60
2018-07-21T22:36:39.655Z,6.50
2018-07-21T22:39:11.115Z,6.80
2018-07-21T22:41:41.172Z,6.80
2018-07-21T22:44:11.010Z,7.97
2018-07-21T22:46:40.773Z,6.83
2018-07-21T22:49:10.587Z,7.33
2018-07-21T22:51:40.363Z,7.10
2018-07-21T22:54:10.111Z,7.47
2018-07-21T22:56:39.862Z,7.23
2018-07-21T22:59:09.672Z,7.60
2018-07-21T23:01:39.863Z,7.67
2018-07-21T23:04:09.604Z,7.20
2018-07-21T23:06:39.469Z,7.97
2018-07-21T23:09:09.747Z,7.53
2018-07-21T23:11:39.739Z,7.30
2018-07-21T23:14:09.797Z,7.57
2018-07-21T23:16:39.648Z,7.40
2018-07-21T23:19:09.470Z,7.33
2018-07-21T23:21:39.159Z,6.97
2018-07-21T23:24:08.902Z,7.20
2018-07-21T23:26:38.623Z,7.70
2018-07-21T23:29:08.362Z,7.67
2018-07-21T23:31:38.128Z,8.20
2018-07-21T23:34:07.964Z,8.07
2018-07-21T23:36:37.750Z,8.00
2018-07-21T23:39:09.667Z,7.70
2018-07-21T23:41:39.414Z,8.13
2018-07-21T23:44:09.219Z,8.53
2018-07-21T23:46:38.992Z,8.47
2018-07-21T23:49:08.751Z,8.63
2018-07-21T23:51:38.452Z,9.00
2018-07-21T23:54:08.191Z,8.53
2018-07-21T23:56:38.193Z,8.47
2018-07-21T23:59:08.261Z,8.67
